Time;durP1;ratioP1;P1;durP2;ratioP2;P2;SDS_P1;SDS_P2;PMS_P1;PMS_P2;Temp;Humidity;BMP_temperature;BMP_pressure;BME280_temperature;BME280_humidity;BME280_pressure;Samples;Min_cycle;Max_cycle;Signal;HPM_P1;HPM_P2
2021/08/30 00:01:31;;;;;;;;;;;;;;;16.04;67.06;99052.94;5053987;28;19974;-73
2021/08/30 00:04:00;;;;;;;;;;;;;;;16.03;66.87;99056.38;5054171;28;19925;-73
2021/08/30 00:06:29;;;;;;;;;;;;;;;16.02;67.13;99059.88;5036010;28;19975;-68
2021/08/30 00:08:58;;;;;;;;;;;;;;;16.00;67.16;99061.63;5054497;28;19966;-69
2021/08/30 00:11:26;;;;;;;;;;;;;;;16.00;67.23;99061.63;5053760;28;19929;-72
2021/08/30 00:13:55;;;;;;;;;;;;;;;15.99;67.27;99059.97;5035933;28;19974;-73
2021/08/30 00:16:25;;;;;;;;;;;;;;;15.99;67.41;99059.97;5054034;28;19931;-68
2021/08/30 00:18:55;;;;;;;;;;;;;;;15.99;67.02;99059.97;5054130;28;19935;-69
2021/08/30 00:21:24;;;;;;;;;;;;;;;15.99;66.99;99065.13;5053660;28;19925;-69
2021/08/30 00:23:52;;;;;;;;;;;;;;;16.01;67.00;99062.47;5053666;28;19994;-68
2021/08/30 00:26:21;;;;;;;;;;;;;;;16.01;67.05;99058.19;5054081;28;19970;-68
2021/08/30 00:28:49;;;;;;;;;;;;;;;16.05;66.94;99064.09;5053716;28;20020;-69
2021/08/30 00:31:18;;;;;;;;;;;;;;;16.04;66.97;99058.09;5053587;28;19925;-73
2021/08/30 00:33:51;;;;;;;;;;;;;;;16.02;66.90;99057.31;5053525;28;20363;-73
2021/08/30 00:36:22;;;;;;;;;;;;;;;16.01;66.99;99063.31;5053568;28;19968;-69
2021/08/30 00:38:54;;;;;;;;;;;;;;;16.01;66.94;99063.31;5053570;28;20011;-68
2021/08/30 00:41:23;;;;;;;;;;;;;;;16.01;67.33;99058.19;5053921;28;19924;-68
2021/08/30 00:43:52;;;;;;;;;;;;;;;15.98;67.19;99066.00;5053572;28;20016;-68
2021/08/30 00:46:20;;;;;;;;;;;;;;;15.96;67.99;99070.34;5053828;28;20370;-68
2021/08/30 00:48:51;;;;;;;;;;;;;;;15.86;67.91;99068.97;5053478;28;19924;-72
2021/08/30 00:51:21;;;;;;;;;;;;;;;15.83;68.76;99069.09;5053823;28;19951;-69
2021/08/30 00:53:51;;;;;;;;;;;;;;;15.82;68.48;99071.69;5040102;28;19975;-72
2021/08/30 00:56:20;;;;;;;;;;;;;;;15.76;68.84;99075.31;5057332;28;19931;-68
2021/08/30 00:58:49;;;;;;;;;;;;;;;15.68;69.35;99064.41;5057294;28;20012;-72
2021/08/30 01:01:17;;;;;;;;;;;;;;;15.53;69.72;99070.00;5057163;28;20184;-71
2021/08/30 01:03:47;;;;;;;;;;;;;;;15.41;70.49;99067.78;5039377;28;20389;-72
2021/08/30 01:06:20;;;;;;;;;;;;;;;15.27;70.72;99069.91;5039619;28;19924;-68
2021/08/30 01:08:52;;;;;;;;;;;;;;;15.22;71.24;99064.06;5057494;28;19925;-73
2021/08/30 01:11:24;;;;;;;;;;;;;;;15.14;71.39;99071.19;5057014;28;19925;-68
2021/08/30 01:13:55;;;;;;;;;;;;;;;14.92;71.68;99070.09;5057341;28;19924;-68
2021/08/30 01:16:25;;;;;;;;;;;;;;;14.76;72.02;99067.94;5057111;28;19955;-72
2021/08/30 01:18:54;;;;;;;;;;;;;;;14.70;72.99;99063.00;5056890;28;20412;-68
2021/08/30 01:21:27;;;;;;;;;;;;;;;14.61;72.96;99070.91;5056925;28;19971;-68
2021/08/30 01:23:56;;;;;;;;;;;;;;;14.48;73.15;99074.72;5057222;28;19929;-68
2021/08/30 01:26:26;;;;;;;;;;;;;;;14.35;73.96;99067.38;5056665;28;20028;-72
2021/08/30 01:29:00;;;;;;;;;;;;;;;14.23;74.56;99071.03;5056730;28;20019;-72
2021/08/30 01:31:35;;;;;;;;;;;;;;;14.13;74.85;99067.88;5056635;28;19939;-71
2021/08/30 01:34:05;;;;;;;;;;;;;;;13.99;75.22;99066.50;5056637;28;19960;-68
2021/08/30 01:36:36;;;;;;;;;;;;;;;13.94;75.65;99065.81;5056644;28;19925;-68
2021/08/30 01:39:06;;;;;;;;;;;;;;;13.89;75.93;99067.66;5057203;28;19925;-72
2021/08/30 01:41:36;;;;;;;;;;;;;;;13.93;76.31;99069.25;5038769;28;19925;-72
2021/08/30 01:44:06;;;;;;;;;;;;;;;13.91;76.00;99076.13;5056654;28;19929;-72
2021/08/30 01:46:36;;;;;;;;;;;;;;;13.96;76.26;99074.31;5056388;28;20298;-72
2021/08/30 01:49:07;;;;;;;;;;;;;;;13.92;76.38;99068.41;5056432;28;19929;-68
2021/08/30 01:51:36;;;;;;;;;;;;;;;13.92;76.21;99072.69;5056746;28;19972;-73
2021/08/30 01:54:05;;;;;;;;;;;;;;;13.92;76.24;99072.69;5056225;28;19929;-68
2021/08/30 01:56:34;;;;;;;;;;;;;;;13.93;76.22;99074.38;5056131;28;20023;-72
2021/08/30 02:01:42;;;;;;;;;;;;;;;13.88;76.70;99065.94;5056477;28;19925;-68
2021/08/30 02:04:13;;;;;;;;;;;;;;;13.88;76.90;99076.19;5055614;28;19933;-68
2021/08/30 02:06:41;;;;;;;;;;;;;;;13.83;77.50;99067.78;5056112;28;19932;-72
2021/08/30 02:09:10;;;;;;;;;;;;;;;13.71;77.63;99068.91;5055938;28;19964;-68
2021/08/30 02:11:39;;;;;;;;;;;;;;;13.87;78.21;99069.38;5055867;28;19925;-68
2021/08/30 02:14:08;;;;;;;;;;;;;;;13.94;78.32;99065.81;5056182;28;20016;-68
2021/08/30 02:16:38;;;;;;;;;;;;;;;13.83;77.84;99067.78;5055973;28;20379;-72
2021/08/30 02:19:13;;;;;;;;;;;;;;;13.85;77.98;99068.56;5055933;28;19964;-72
2021/08/30 02:21:44;;;;;;;;;;;;;;;13.79;77.71;99067.03;5055595;28;19925;-68
2021/08/30 02:24:16;;;;;;;;;;;;;;;13.86;78.04;99070.28;5056137;28;20019;-72
2021/08/30 02:26:48;;;;;;;;;;;;;;;13.86;77.96;99072.84;5056009;28;19928;-68
2021/08/30 02:29:18;;;;;;;;;;;;;;;13.75;78.22;99072.25;5055587;28;19924;-68
2021/08/30 02:31:49;;;;;;;;;;;;;;;13.71;78.42;99066.34;5055904;28;20024;-72
2021/08/30 02:34:21;;;;;;;;;;;;;;;13.62;78.78;99078.53;5055529;28;20321;-72
2021/08/30 02:36:51;;;;;;;;;;;;;;;13.59;78.67;99073.47;5055364;28;19968;-68
2021/08/30 02:39:21;;;;;;;;;;;;;;;13.59;79.31;99068.34;4988757;28;20395;-72
2021/08/30 02:41:51;;;;;;;;;;;;;;;13.78;79.00;99070.44;5055450;28;19925;-72
2021/08/30 02:44:21;;;;;;;;;;;;;;;13.89;79.02;99071.03;5055755;28;19978;-72
2021/08/30 02:46:50;;;;;;;;;;;;;;;13.82;78.73;99074.63;5055258;28;19925;-72
2021/08/30 02:49:18;;;;;;;;;;;;;;;13.76;78.80;99071.34;5055101;28;19963;-68
2021/08/30 02:51:47;;;;;;;;;;;;;;;13.76;79.17;99071.34;5055470;28;19925;-68
2021/08/30 02:54:19;;;;;;;;;;;;;;;13.81;79.05;99075.50;5055349;28;19968;-72
2021/08/30 02:56:47;;;;;;;;;;;;;;;13.80;78.73;99080.66;5055093;28;20386;-72
2021/08/30 02:59:17;;;;;;;;;;;;;;;13.73;78.88;99079.13;5054971;28;20027;-68
2021/08/30 03:01:46;;;;;;;;;;;;;;;13.73;79.20;99076.56;5055429;28;20047;-68
2021/08/30 03:04:15;;;;;;;;;;;;;;;13.64;78.66;99081.91;5054937;28;20015;-73
2021/08/30 03:06:45;;;;;;;;;;;;;;;13.58;78.76;99084.63;5055278;28;20358;-68
2021/08/30 03:09:13;;;;;;;;;;;;;;;13.60;78.71;99085.41;5055351;28;19979;-68
2021/08/30 03:11:49;;;;;;;;;;;;;;;13.68;79.14;99083.50;5054088;28;20474;-68
2021/08/30 03:14:19;;;;;;;;;;;;;;;13.71;78.65;99088.56;5053959;28;19925;-72
2021/08/30 03:16:48;;;;;;;;;;;;;;;13.77;78.93;99088.44;5054720;28;20011;-72
2021/08/30 03:19:20;;;;;;;;;;;;;;;13.73;78.96;99086.81;5036838;28;19928;-68
2021/08/30 03:21:50;;;;;;;;;;;;;;;13.73;78.70;99081.69;5054407;28;19929;-73
2021/08/30 03:24:22;;;;;;;;;;;;;;;13.82;78.77;99086.63;5036976;28;19925;-68
2021/08/30 03:26:54;;;;;;;;;;;;;;;13.83;78.81;99083.16;5054822;28;20321;-73
2021/08/30 03:29:25;;;;;;;;;;;;;;;13.88;78.90;99086.47;5055106;28;19925;-72
2021/08/30 03:31:54;;;;;;;;;;;;;;;13.87;78.86;99087.31;5054210;28;19965;-68
2021/08/30 03:34:25;;;;;;;;;;;;;;;13.77;78.64;99093.56;5054277;28;19970;-69
2021/08/30 03:36:57;;;;;;;;;;;;;;;13.84;78.90;99095.13;5054396;28;19925;-69
2021/08/30 03:39:27;;;;;;;;;;;;;;;13.75;78.89;99100.47;5054338;28;19928;-73
2021/08/30 03:41:59;;;;;;;;;;;;;;;13.59;78.96;99099.97;5036649;28;19924;-69
2021/08/30 03:44:32;;;;;;;;;;;;;;;13.51;79.46;99101.84;5054412;28;20263;-68
2021/08/30 03:47:01;;;;;;;;;;;;;;;13.48;79.96;99096.78;5054518;28;19924;-69
2021/08/30 03:49:33;;;;;;;;;;;;;;;13.44;79.81;99096.00;5054259;28;19931;-69
2021/08/30 03:52:03;;;;;;;;;;;;;;;13.42;79.89;99094.34;5054020;28;19925;-72
2021/08/30 03:54:32;;;;;;;;;;;;;;;13.52;80.56;99097.56;5054049;28;19928;-68
2021/08/30 03:57:02;;;;;;;;;;;;;;;13.49;80.67;99102.75;5054328;28;20370;-68
2021/08/30 03:59:33;;;;;;;;;;;;;;;13.43;80.69;99098.63;5054270;28;20322;-68
2021/08/30 04:02:02;;;;;;;;;;;;;;;13.54;80.66;99108.63;5054032;28;20020;-68
2021/08/30 04:04:32;;;;;;;;;;;;;;;13.68;80.78;99104.03;5053981;28;19939;-72
2021/08/30 04:07:01;;;;;;;;;;;;;;;13.83;80.18;99116.50;5036391;28;19929;-72
2021/08/30 04:09:31;;;;;;;;;;;;;;;13.68;79.71;99115.13;5036222;28;19925;-72
2021/08/30 04:12:06;;;;;;;;;;;;;;;13.29;79.25;99111.69;5053772;28;19925;-68
2021/08/30 04:14:39;;;;;;;;;;;;;;;13.12;79.90;99112.94;5053908;28;20023;-68
2021/08/30 04:17:12;;;;;;;;;;;;;;;13.07;80.22;99115.59;5053811;28;20370;-69
2021/08/30 04:19:41;;;;;;;;;;;;;;;13.10;80.69;99115.50;5053706;28;20019;-74
2021/08/30 04:22:12;;;;;;;;;;;;;;;13.11;80.98;99112.09;5053566;28;19948;-69
2021/08/30 04:24:41;;;;;;;;;;;;;;;13.19;81.00;99112.78;5053801;28;20015;-70
2021/08/30 04:27:15;;;;;;;;;;;;;;;13.37;81.33;99109.81;5057249;28;20020;-71
2021/08/30 04:29:47;;;;;;;;;;;;;;;13.56;81.21;99109.41;5057760;28;19924;-75
2021/08/30 04:32:19;;;;;;;;;;;;;;;13.60;80.58;99116.19;5057783;28;19932;-69
2021/08/30 04:34:48;;;;;;;;;;;;;;;13.61;80.80;99112.72;5057718;28;20012;-74
2021/08/30 04:37:20;;;;;;;;;;;;;;;13.54;80.50;99113.75;5057673;28;19936;-70
2021/08/30 04:39:49;;;;;;;;;;;;;;;13.62;80.70;99109.31;5057653;28;19931;-70
2021/08/30 04:42:19;;;;;;;;;;;;;;;13.63;80.75;99106.69;5057860;28;19929;-74
2021/08/30 04:44:50;;;;;;;;;;;;;;;13.69;80.49;99110.84;5057771;28;19925;-69
2021/08/30 04:47:19;;;;;;;;;;;;;;;13.65;79.98;99109.25;5057509;28;19924;-69
2021/08/30 04:49:47;;;;;;;;;;;;;;;13.54;80.29;99104.34;5039654;28;20354;-74
2021/08/30 04:52:16;;;;;;;;;;;;;;;13.52;80.12;99108.66;5057292;28;20417;-69
2021/08/30 04:54:44;;;;;;;;;;;;;;;13.57;80.13;99111.13;5057499;28;19978;-74
2021/08/30 04:57:14;;;;;;;;;;;;;;;13.60;80.17;99116.19;5057319;28;19924;-74
2021/08/30 04:59:45;;;;;;;;;;;;;;;13.58;79.79;99125.63;5039689;28;19973;-71
2021/08/30 05:02:13;;;;;;;;;;;;;;;13.46;80.37;99119.03;5057322;28;19971;-69
2021/08/30 05:04:42;;;;;;;;;;;;;;;13.58;80.13;99125.63;5057518;28;19947;-69
2021/08/30 05:07:11;;;;;;;;;;;;;;;13.59;80.45;99130.72;5057725;28;19955;-74
2021/08/30 05:09:39;;;;;;;;;;;;;;;13.48;80.20;99131.84;5057039;28;19990;-72
2021/08/30 05:12:08;;;;;;;;;;;;;;;13.43;80.05;99134.50;5056981;28;19929;-73
2021/08/30 05:14:37;;;;;;;;;;;;;;;13.51;80.28;99126.66;5039654;28;20023;-69
2021/08/30 05:17:07;;;;;;;;;;;;;;;13.68;80.51;99133.06;5007660;28;19973;-69
2021/08/30 05:19:35;;;;;;;;;;;;;;;13.74;79.95;99129.53;5057371;28;19924;-74
2021/08/30 05:22:05;;;;;;;;;;;;;;;13.63;80.25;99129.78;5056962;28;19925;-73
2021/08/30 05:24:34;;;;;;;;;;;;;;;13.73;80.56;99127.84;5039139;28;20404;-72
2021/08/30 05:27:02;;;;;;;;;;;;;;;13.88;80.05;99137.78;5056750;28;20382;-69
2021/08/30 05:29:31;;;;;;;;;;;;;;;13.82;79.83;99127.66;5056425;28;19925;-69
2021/08/30 05:32:00;;;;;;;;;;;;;;;13.84;79.86;99134.44;5056616;28;20390;-73
2021/08/30 05:34:30;;;;;;;;;;;;;;;14.04;80.21;99133.97;5056575;28;19932;-68
2021/08/30 05:36:58;;;;;;;;;;;;;;;14.15;79.95;99126.88;5038047;28;19932;-73
2021/08/30 05:39:27;;;;;;;;;;;;;;;14.24;79.72;99136.91;5056450;28;20053;-69
2021/08/30 05:41:56;;;;;;;;;;;;;;;14.35;79.47;99134.94;5056877;28;19924;-69
2021/08/30 05:44:24;;;;;;;;;;;;;;;14.33;79.10;99126.44;5056450;28;19925;-71
2021/08/30 05:46:53;;;;;;;;;;;;;;;14.31;78.97;99128.22;5056792;28;19964;-71
2021/08/30 05:49:22;;;;;;;;;;;;;;;14.38;78.86;99129.75;5056195;28;20306;-71
2021/08/30 05:51:52;;;;;;;;;;;;;;;14.49;79.30;99132.06;5038608;28;19924;-69
2021/08/30 05:54:20;;;;;;;;;;;;;;;14.60;79.38;99120.63;5056634;28;20363;-73
2021/08/30 05:56:49;;;;;;;;;;;;;;;14.58;78.93;99116.41;5056212;28;19955;-69
2021/08/30 05:59:18;;;;;;;;;;;;;;;14.62;78.70;99118.84;5056152;28;20035;-69
2021/08/30 06:01:47;;;;;;;;;;;;;;;14.76;79.13;99127.03;5056206;28;20409;-69
2021/08/30 06:04:16;;;;;;;;;;;;;;;14.93;78.54;99125.72;5056070;28;19925;-69
2021/08/30 06:06:45;;;;;;;;;;;;;;;15.01;78.40;99123.81;5055998;28;19925;-71
2021/08/30 06:09:16;;;;;;;;;;;;;;;15.14;77.77;99115.69;5055940;28;19931;-73
2021/08/30 06:11:47;;;;;;;;;;;;;;;15.14;77.85;99123.41;5056234;28;20291;-69
2021/08/30 06:14:16;;;;;;;;;;;;;;;15.14;77.66;99122.59;5055819;28;19968;-72
2021/08/30 06:16:47;;;;;;;;;;;;;;;15.22;77.48;99130.91;5055809;28;20007;-69
2021/08/30 06:19:17;;;;;;;;;;;;;;;15.28;77.24;99125.63;5056245;28;19925;-73
2021/08/30 06:21:46;;;;;;;;;;;;;;;15.45;76.76;99133.72;5020798;28;19924;-72
2021/08/30 06:24:17;;;;;;;;;;;;;;;15.49;76.55;99129.31;5055972;28;19925;-73
2021/08/30 06:26:45;;;;;;;;;;;;;;;15.59;76.53;99126.44;5037739;28;20279;-71
2021/08/30 06:29:14;;;;;;;;;;;;;;;15.66;76.00;99139.94;5055551;28;19983;-73
2021/08/30 06:31:43;;;;;;;;;;;;;;;15.68;76.01;99139.00;5055484;28;19967;-69
2021/08/30 06:34:12;;;;;;;;;;;;;;;15.71;75.95;99140.66;5055630;28;19925;-74
2021/08/30 06:36:40;;;;;;;;;;;;;;;15.82;76.08;99142.00;5055417;28;19925;-74
2021/08/30 06:39:09;;;;;;;;;;;;;;;15.80;75.78;99138.66;5055863;28;19929;-75
2021/08/30 06:41:39;;;;;;;;;;;;;;;15.81;75.63;99142.06;5055540;28;20027;-70
2021/08/30 06:44:08;;;;;;;;;;;;;;;15.77;75.55;99135.31;5055379;28;20015;-72
2021/08/30 06:46:37;;;;;;;;;;;;;;;15.86;75.30;99141.03;5055670;28;19928;-70
2021/08/30 06:49:06;;;;;;;;;;;;;;;16.00;74.97;99133.72;5055193;28;19932;-70
2021/08/30 06:51:35;;;;;;;;;;;;;;;16.13;74.72;99138.47;5055198;28;19932;-74
2021/08/30 06:54:03;;;;;;;;;;;;;;;16.23;74.33;99134.72;5055003;28;19925;-73
2021/08/30 06:56:32;;;;;;;;;;;;;;;16.29;73.91;99137.09;5055308;28;20038;-73
2021/08/30 06:59:02;;;;;;;;;;;;;;;16.36;73.77;99136.03;5055341;28;19932;-70
2021/08/30 07:01:31;;;;;;;;;;;;;;;16.39;73.35;99133.31;5037377;28;19932;-72
2021/08/30 07:04:01;;;;;;;;;;;;;;;16.43;72.94;99132.34;5054905;28;19925;-69
2021/08/30 07:06:31;;;;;;;;;;;;;;;16.45;72.95;99128.81;5054918;28;19924;-73
2021/08/30 07:09:02;;;;;;;;;;;;;;;16.56;72.48;99123.34;5054621;28;20028;-72
2021/08/30 07:11:31;;;;;;;;;;;;;;;16.60;72.58;99124.94;5054725;28;20016;-71
2021/08/30 07:14:00;;;;;;;;;;;;;;;16.65;72.43;99134.16;5054550;28;19964;-71
2021/08/30 07:16:30;;;;;;;;;;;;;;;16.70;72.13;99131.44;5054448;28;19974;-74
2021/08/30 07:18:59;;;;;;;;;;;;;;;16.71;71.74;99133.13;5054388;28;19924;-71
2021/08/30 07:21:28;;;;;;;;;;;;;;;16.74;71.37;99135.59;5054363;28;19931;-73
2021/08/30 07:23:57;;;;;;;;;;;;;;;16.78;71.18;99134.59;5036865;28;19925;-70
2021/08/30 07:26:25;;;;;;;;;;;;;;;16.84;70.63;99134.41;5054431;28;20382;-70
2021/08/30 07:28:54;;;;;;;;;;;;;;;16.92;70.30;99136.69;5054383;28;19925;-71
2021/08/30 07:31:23;;;;;;;;;;;;;;;17.01;69.70;99150.09;5054406;28;20070;-72
2021/08/30 07:33:53;;;;;;;;;;;;;;;17.11;69.16;99142.88;5054334;28;19931;-73
2021/08/30 07:36:22;;;;;;;;;;;;;;;17.20;69.21;99147.72;5054293;28;19924;-72
2021/08/30 07:38:51;;;;;;;;;;;;;;;17.30;69.13;99146.47;5054447;28;19925;-71
2021/08/30 07:41:19;;;;;;;;;;;;;;;17.36;68.94;99154.84;5054555;28;20186;-70
2021/08/30 07:43:48;;;;;;;;;;;;;;;17.36;68.70;99161.75;5054206;28;19932;-69
2021/08/30 07:46:20;;;;;;;;;;;;;;;17.32;68.51;99155.03;5054391;28;20007;-72
2021/08/30 07:48:48;;;;;;;;;;;;;;;17.29;68.39;99155.13;5054088;28;20020;-72
2021/08/30 07:51:19;;;;;;;;;;;;;;;17.31;68.07;99161.91;5054538;28;20366;-73
2021/08/30 07:53:47;;;;;;;;;;;;;;;17.35;68.18;99163.47;5053939;28;19925;-70
2021/08/30 07:56:16;;;;;;;;;;;;;;;17.43;67.95;99161.47;5054073;28;19925;-70
2021/08/30 07:58:45;;;;;;;;;;;;;;;17.60;67.99;99165.19;5053935;28;20371;-73
2021/08/30 08:01:13;;;;;;;;;;;;;;;17.65;67.40;99166.72;5053413;28;20020;-72
2021/08/30 08:03:42;;;;;;;;;;;;;;;17.87;67.35;99161.56;5053893;28;19932;-71
2021/08/30 08:06:11;;;;;;;;;;;;;;;18.14;65.79;99160.47;5053922;28;20019;-75
2021/08/30 08:08:41;;;;;;;;;;;;;;;18.35;64.87;99164.81;5036376;28;19925;-70
2021/08/30 08:11:12;;;;;;;;;;;;;;;18.66;63.94;99173.03;5053830;28;19932;-73
2021/08/30 08:13:40;;;;;;;;;;;;;;;18.77;63.19;99169.13;5054067;28;19929;-71
2021/08/30 08:16:09;;;;;;;;;;;;;;;18.93;61.99;99167.59;5053786;28;20003;-73
2021/08/30 08:18:38;;;;;;;;;;;;;;;18.99;60.93;99164.72;5054097;28;20289;-72
2021/08/30 08:21:07;;;;;;;;;;;;;;;19.01;60.79;99165.50;5053420;28;20302;-71
2021/08/30 08:23:36;;;;;;;;;;;;;;;19.01;60.12;99173.25;5052860;28;19925;-76
2021/08/30 08:26:07;;;;;;;;;;;;;;;18.92;60.05;99173.66;5053461;28;19982;-74
2021/08/30 08:28:36;;;;;;;;;;;;;;;18.81;59.34;99181.88;5053536;28;20264;-72
2021/08/30 08:31:04;;;;;;;;;;;;;;;18.76;58.97;99196.75;5053467;28;19963;-71
2021/08/30 08:33:33;;;;;;;;;;;;;;;18.94;58.86;99182.19;5053457;28;20389;-73
2021/08/30 08:36:02;;;;;;;;;;;;;;;19.23;58.77;99186.94;5068380;28;20010;-71
2021/08/30 08:38:31;;;;;;;;;;;;;;;19.49;58.03;99191.84;5053866;28;20267;-74
2021/08/30 08:40:59;;;;;;;;;;;;;;;19.58;57.43;99201.78;5059719;28;20317;-71
2021/08/30 08:43:30;;;;;;;;;;;;;;;19.91;56.90;99202.84;5067838;28;19931;-71
2021/08/30 08:45:58;;;;;;;;;;;;;;;20.00;56.29;99201.59;5071991;28;20007;-72
2021/08/30 08:48:27;;;;;;;;;;;;;;;20.01;55.52;99196.31;5060741;28;20378;-72
2021/08/30 08:50:56;;;;;;;;;;;;;;;20.05;55.62;99195.28;5071593;28;19925;-72
2021/08/30 08:53:24;;;;;;;;;;;;;;;20.44;55.92;99197.72;5072743;28;19975;-71
2021/08/30 08:55:53;;;;;;;;;;;;;;;20.73;54.93;99199.75;5072714;28;20305;-71
2021/08/30 08:58:22;;;;;;;;;;;;;;;20.86;54.30;99204.31;5069092;28;20379;-71
2021/08/30 09:01:02;;;;;;;;;;;;;;;20.91;53.38;99204.94;5060744;28;19936;-70
2021/08/30 09:03:34;;;;;;;;;;;;;;;21.04;53.24;99196.44;5058128;28;19925;-72
2021/08/30 09:06:04;;;;;;;;;;;;;;;21.01;53.03;99195.78;5054146;28;20030;-71
2021/08/30 09:08:35;;;;;;;;;;;;;;;21.10;53.17;99188.38;5061988;28;19964;-73
2021/08/30 09:11:14;;;;;;;;;;;;;;;21.29;53.47;99194.31;5055535;28;19948;-73
2021/08/30 09:13:49;;;;;;;;;;;;;;;21.35;52.68;99193.97;5060465;28;20008;-72
2021/08/30 09:16:20;;;;;;;;;;;;;;;21.36;52.36;99195.66;5065351;28;19977;-72
2021/08/30 09:18:50;;;;;;;;;;;;;;;21.56;51.87;99196.38;5052233;28;19948;-71
2021/08/30 09:21:19;;;;;;;;;;;;;;;21.71;51.74;99201.59;5075993;28;19978;-71
2021/08/30 09:23:47;;;;;;;;;;;;;;;21.80;51.18;99197.66;5059084;28;19931;-72
2021/08/30 09:26:17;;;;;;;;;;;;;;;21.87;51.04;99202.47;5077070;28;19931;-73
2021/08/30 09:28:50;;;;;;;;;;;;;;;22.00;50.88;99197.47;5075653;28;20019;-73
2021/08/30 09:31:20;;;;;;;;;;;;;;;22.19;51.02;99198.13;5073608;28;20827;-72
2021/08/30 09:33:52;;;;;;;;;;;;;;;22.33;50.45;99190.38;5051929;28;19943;-70
2021/08/30 09:36:21;;;;;;;;;;;;;;;22.32;50.02;99196.50;5067713;28;19970;-73
2021/08/30 09:38:52;;;;;;;;;;;;;;;22.29;49.92;99198.44;5058133;28;20353;-72
2021/08/30 09:41:22;;;;;;;;;;;;;;;22.36;50.20;99194.56;5064386;28;20297;-71
2021/08/30 09:43:59;;;;;;;;;;;;;;;22.35;49.87;99198.94;5067901;28;19931;-73
2021/08/30 09:46:31;;;;;;;;;;;;;;;22.46;49.40;99193.94;5059010;28;19939;-72
2021/08/30 09:49:06;;;;;;;;;;;;;;;22.65;49.52;99197.22;5054818;28;20537;-71
2021/08/30 09:51:37;;;;;;;;;;;;;;;22.72;49.31;99191.66;5056855;28;19929;-72
2021/08/30 09:54:14;;;;;;;;;;;;;;;22.59;49.50;99202.75;5070396;28;20020;-72
2021/08/30 09:56:47;;;;;;;;;;;;;;;22.55;50.06;99201.25;5073543;28;19938;-73
2021/08/30 09:59:17;;;;;;;;;;;;;;;22.41;49.64;99193.38;5067377;28;20267;-73
2021/08/30 10:01:50;;;;;;;;;;;;;;;21.86;50.67;99195.59;5071686;28;20020;-70
2021/08/30 10:04:24;;;;;;;;;;;;;;;22.08;50.24;99200.47;5054017;28;19931;-72
2021/08/30 10:06:54;;;;;;;;;;;;;;;22.15;50.11;99196.59;5070220;28;20019;-72
2021/08/30 10:09:23;;;;;;;;;;;;;;;22.07;50.56;99193.59;5058794;28;19928;-73
2021/08/30 10:11:52;;;;;;;;;;;;;;;22.05;50.55;99211.03;5068240;28;19925;-73
2021/08/30 10:14:26;;;;;;;;;;;;;;;22.10;50.99;99209.00;5070614;28;19931;-75
2021/08/30 10:16:57;;;;;;;;;;;;;;;22.24;50.91;99196.09;5073963;28;19972;-73
2021/08/30 10:19:32;;;;;;;;;;;;;;;22.28;50.75;99207.16;5072202;28;19924;-72
2021/08/30 10:22:16;;;;;;;;;;;;;;;22.13;50.33;99198.44;5040971;28;19960;-74
2021/08/30 10:25:25;;;;;;;;;;;;;;;21.99;50.80;99207.00;5049453;28;20370;-71
2021/08/30 10:28:33;;;;;;;;;;;;;;;22.20;50.27;99204.97;5051081;28;19964;-73
2021/08/30 10:34:45;;;;;;;;;;;;;;;22.37;49.63;99202.28;5046746;28;19929;-75
2021/08/30 10:37:18;;;;;;;;;;;;;;;22.46;49.43;99200.91;5051237;28;19928;-75
2021/08/30 10:39:52;;;;;;;;;;;;;;;22.02;49.87;99206.00;5039393;28;20401;-76
2021/08/30 10:42:21;;;;;;;;;;;;;;;21.73;50.95;99198.91;5035079;28;19975;-74
2021/08/30 10:44:50;;;;;;;;;;;;;;;21.83;50.83;99200.94;5035644;28;20017;-72
2021/08/30 10:47:19;;;;;;;;;;;;;;;22.19;50.33;99211.13;5035425;28;20393;-72
2021/08/30 10:49:50;;;;;;;;;;;;;;;22.58;49.90;99206.25;5034656;28;19964;-72
2021/08/30 10:52:18;;;;;;;;;;;;;;;22.72;49.58;99199.47;5035368;28;19925;-72
2021/08/30 10:54:51;;;;;;;;;;;;;;;23.10;49.79;99198.06;5035283;28;20366;-73
2021/08/30 10:57:20;;;;;;;;;;;;;;;23.28;48.86;99196.94;5035261;28;19925;-72
2021/08/30 10:59:57;;;;;;;;;;;;;;;23.27;48.72;99196.09;5035211;28;20011;-72
2021/08/30 11:02:35;;;;;;;;;;;;;;;23.33;49.18;99189.69;5035189;28;19972;-73
2021/08/30 11:05:06;;;;;;;;;;;;;;;22.94;48.96;99192.09;5035142;28;19925;-73
2021/08/30 11:07:35;;;;;;;;;;;;;;;22.82;49.07;99187.59;5035364;28;20429;-74
2021/08/30 11:10:04;;;;;;;;;;;;;;;22.87;49.19;99201.16;5035017;28;20372;-74
2021/08/30 11:12:33;;;;;;;;;;;;;;;22.62;49.50;99202.59;5034911;28;19975;-72
2021/08/30 11:15:02;;;;;;;;;;;;;;;22.20;50.08;99204.97;5034878;28;19925;-73
2021/08/30 11:17:31;;;;;;;;;;;;;;;21.95;50.26;99199.47;5034836;28;20019;-74
2021/08/30 11:20:01;;;;;;;;;;;;;;;21.64;49.53;99202.00;5035035;28;20020;-78
2021/08/30 11:22:31;;;;;;;;;;;;;;;21.36;49.70;99208.66;5053110;28;19932;-73
2021/08/30 11:25:00;;;;;;;;;;;;;;;21.29;49.84;99209.03;5054610;28;19925;-72
2021/08/30 11:27:32;;;;;;;;;;;;;;;21.26;50.05;99207.44;5054607;28;19929;-75
2021/08/30 11:30:02;;;;;;;;;;;;;;;21.22;49.93;99208.53;5054793;28;20263;-75
2021/08/30 11:32:32;;;;;;;;;;;;;;;21.20;50.42;99199.13;5054805;28;19968;-73
2021/08/30 11:35:01;;;;;;;;;;;;;;;21.14;50.96;99209.84;5054082;28;19924;-72
2021/08/30 11:37:33;;;;;;;;;;;;;;;21.01;51.06;99209.59;5054235;28;19928;-72
2021/08/30 11:40:02;;;;;;;;;;;;;;;21.26;50.61;99199.66;5054421;28;19924;-74
2021/08/30 11:42:33;;;;;;;;;;;;;;;21.37;50.50;99212.09;5036595;28;19924;-73
2021/08/30 11:45:04;;;;;;;;;;;;;;;21.08;50.97;99205.81;5054559;28;19929;-71
2021/08/30 11:47:33;;;;;;;;;;;;;;;20.96;52.43;99196.00;5054647;28;19932;-71
2021/08/30 11:50:02;;;;;;;;;;;;;;;21.25;51.84;99197.16;5054163;28;20035;-74
2021/08/30 11:52:33;;;;;;;;;;;;;;;21.62;50.64;99196.06;5054166;28;19932;-72
2021/08/30 11:55:04;;;;;;;;;;;;;;;21.90;50.16;99197.13;5054323;28;19925;-74
2021/08/30 11:57:40;;;;;;;;;;;;;;;22.24;49.83;99196.09;5054087;28;20378;-75
2021/08/30 12:00:14;;;;;;;;;;;;;;;22.68;48.70;99177.97;5036273;28;20300;-75
2021/08/30 12:02:43;;;;;;;;;;;;;;;23.08;47.53;99179.09;5053938;28;19947;-73
2021/08/30 12:05:12;;;;;;;;;;;;;;;23.54;47.04;99180.59;5054041;28;19932;-75
2021/08/30 12:07:43;;;;;;;;;;;;;;;23.83;46.13;99187.47;5053809;28;19925;-72
2021/08/30 12:10:13;;;;;;;;;;;;;;;24.14;45.28;99182.97;5054582;28;19974;-73
2021/08/30 12:12:56;;;;;;;;;;;;;;;24.05;45.19;99180.88;5054039;28;19931;-74
2021/08/30 12:15:27;;;;;;;;;;;;;;;24.22;45.73;99180.69;5053924;28;20298;-73
2021/08/30 12:17:57;;;;;;;;;;;;;;;23.03;46.26;99173.31;5053813;28;19947;-75
2021/08/30 12:20:27;;;;;;;;;;;;;;;22.66;47.60;99182.44;5053503;28;19956;-72
2021/08/30 12:22:59;;;;;;;;;;;;;;;22.33;47.88;99176.53;5053899;28;20007;-75
2021/08/30 12:25:28;;;;;;;;;;;;;;;22.02;48.35;99187.81;5053785;28;19925;-74
2021/08/30 12:27:58;;;;;;;;;;;;;;;21.71;49.07;99179.97;5053834;28;20270;-72
2021/08/30 12:30:28;;;;;;;;;;;;;;;21.49;49.88;99179.44;5053534;28;19928;-75
2021/08/30 12:33:06;;;;;;;;;;;;;;;21.31;50.36;99182.09;5053896;28;19955;-72
2021/08/30 12:35:36;;;;;;;;;;;;;;;21.09;50.43;99175.50;5053784;28;19924;-71
2021/08/30 12:38:07;;;;;;;;;;;;;;;21.06;51.05;99171.31;5053599;28;20370;-71
2021/08/30 12:40:37;;;;;;;;;;;;;;;20.96;50.86;99180.44;5053505;28;19929;-72
2021/08/30 12:43:06;;;;;;;;;;;;;;;20.88;51.48;99176.53;5053589;28;19925;-75
2021/08/30 12:45:36;;;;;;;;;;;;;;;20.82;51.54;99184.66;5035775;28;19984;-73
2021/08/30 12:48:05;;;;;;;;;;;;;;;20.80;51.78;99187.34;5056776;28;19972;-71
2021/08/30 12:50:35;;;;;;;;;;;;;;;20.84;52.14;99172.44;5057749;28;19932;-72
2021/08/30 12:53:18;;;;;;;;;;;;;;;21.48;50.82;99177.75;5057535;28;19931;-71
2021/08/30 12:55:47;;;;;;;;;;;;;;;21.97;49.81;99182.03;5057723;28;19931;-75
2021/08/30 12:58:15;;;;;;;;;;;;;;;22.35;49.60;99178.13;5057468;28;19996;-73
2021/08/30 13:00:44;;;;;;;;;;;;;;;22.51;50.00;99173.72;5057240;28;19924;-74
2021/08/30 13:03:16;;;;;;;;;;;;;;;23.11;47.99;99168.47;5057288;28;19929;-74
2021/08/30 13:05:44;;;;;;;;;;;;;;;23.62;46.78;99180.97;5057603;28;20332;-71
2021/08/30 13:08:14;;;;;;;;;;;;;;;24.06;46.86;99185.19;5057417;28;19925;-72
2021/08/30 13:10:45;;;;;;;;;;;;;;;24.36;46.47;99183.22;5057255;28;19951;-72